Time;durP1;ratioP1;P1;durP2;ratioP2;P2;SDS_P1;SDS_P2;PMS_P1;PMS_P2;Temp;Humidity;BMP_temperature;BMP_pressure;BME280_temperature;BME280_humidity;BME280_pressure;Samples;Min_cycle;Max_cycle;Signal;HPM_P1;HPM_P2
2023/05/15 00:00:09;;;;;;;30.67;19.67;;;;;;;10.87;100.00;101373.63;4866606;29;20176;-81
2023/05/15 00:02:36;;;;;;;29.98;19.17;;;;;;;10.85;100.00;101376.56;4881346;29;20053;-81
2023/05/15 00:05:03;;;;;;;37.83;19.98;;;;;;;10.82;100.00;101370.69;4881938;29;20043;-81
2023/05/15 00:07:28;;;;;;;28.10;18.77;;;;;;;10.79;100.00;101366.50;4881157;29;20041;-81
2023/05/15 00:09:54;;;;;;;29.20;19.60;;;;;;;10.75;100.00;101369.81;4850787;29;20032;-81
2023/05/15 00:12:19;;;;;;;33.53;20.30;;;;;;;10.73;100.00;101367.31;4881466;29;20120;-81
2023/05/15 00:14:45;;;;;;;33.93;20.33;;;;;;;10.70;100.00;101360.44;4901942;29;20104;-81
2023/05/15 00:17:11;;;;;;;32.58;20.58;;;;;;;10.67;100.00;101366.28;4885492;29;20040;-81
2023/05/15 00:19:36;;;;;;;31.73;20.60;;;;;;;10.63;100.00;101369.56;4902121;29;20067;-81
2023/05/15 00:22:02;;;;;;;33.97;20.88;;;;;;;10.58;100.00;101364.75;4902597;29;20119;-81
2023/05/15 00:24:27;;;;;;;34.57;20.33;;;;;;;10.56;100.00;101360.59;4869158;29;20037;-81
2023/05/15 00:26:53;;;;;;;35.13;22.33;;;;;;;10.49;100.00;101368.69;4869149;29;20469;-81
2023/05/15 00:29:18;;;;;;;40.60;22.07;;;;;;;10.45;100.00;101352.00;4869714;29;20036;-81
2023/05/15 00:31:46;;;;;;;33.70;21.15;;;;;;;10.41;100.00;101349.84;4884965;29;20065;-82
2023/05/15 00:34:11;;;;;;;34.70;21.30;;;;;;;10.38;100.00;101355.69;4870305;29;20044;-81
2023/05/15 00:36:37;;;;;;;33.93;20.83;;;;;;;10.33;100.00;101346.31;4854409;29;20084;-81
2023/05/15 00:39:02;;;;;;;34.17;21.03;;;;;;;10.30;100.00;101346.66;4869558;29;20040;-81
2023/05/15 00:41:31;;;;;;;35.67;20.57;;;;;;;10.26;100.00;101348.13;4902052;29;20143;-81
2023/05/15 00:43:56;;;;;;;35.25;22.05;;;;;;;10.19;100.00;101334.50;4901439;29;20047;-81
2023/05/15 00:46:24;;;;;;;39.27;22.67;;;;;;;10.15;100.00;101335.94;4853971;29;20036;-81
2023/05/15 00:48:50;;;;;;;41.53;22.40;;;;;;;10.12;100.00;101340.94;4901127;29;20562;-81
2023/05/15 00:51:16;;;;;;;40.88;22.70;;;;;;;10.07;100.00;101337.97;4884670;29;20032;-81
2023/05/15 00:53:42;;;;;;;36.40;23.20;;;;;;;9.99;100.00;101339.84;4901236;29;20060;-81
2023/05/15 00:56:09;;;;;;;42.20;22.17;;;;;;;9.95;100.00;101335.84;4901313;29;20028;-81
2023/05/15 00:58:36;;;;;;;41.60;22.48;;;;;;;9.89;100.00;101339.34;4884073;29;20088;-81
2023/05/15 01:01:01;;;;;;;37.83;22.80;;;;;;;9.87;100.00;101341.41;4868712;29;20088;-81
2023/05/15 01:03:27;;;;;;;39.67;22.67;;;;;;;9.83;100.00;101337.41;4868406;29;20438;-81
2023/05/15 01:05:53;;;;;;;40.40;22.77;;;;;;;9.79;100.00;101338.88;4901113;29;20028;-81
2023/05/15 01:08:21;;;;;;;41.10;22.90;;;;;;;9.77;100.00;101332.78;4853458;29;20397;-81
2023/05/15 01:10:50;;;;;;;41.30;23.55;;;;;;;9.74;100.00;101330.47;4884621;29;20044;-81
2023/05/15 01:13:21;;;;;;;40.58;23.70;;;;;;;9.72;100.00;101338.00;4900674;29;20437;-81
2023/05/15 01:15:48;;;;;;;45.03;23.33;;;;;;;9.69;100.00;101324.84;4884380;29;20036;-81
2023/05/15 01:18:13;;;;;;;43.33;22.87;;;;;;;9.68;100.00;101328.56;4868562;29;20033;-81
2023/05/15 01:20:49;;;;;;;41.53;25.30;;;;;;;9.64;100.00;101325.41;4884298;29;20537;-81
2023/05/15 01:23:22;;;;;;;39.23;22.40;;;;;;;9.62;100.00;101324.78;4883639;29;20044;-81
2023/05/15 01:26:17;;;;;;;39.53;23.73;;;;;;;9.61;100.00;101332.06;4900144;29;20036;-81
2023/05/15 01:28:50;;;;;;;41.25;23.90;;;;;;;9.55;100.00;101323.88;4900687;29;20496;-81
2023/05/15 01:31:21;;;;;;;40.30;23.17;;;;;;;9.55;100.00;101324.75;4884162;29;20039;-81
2023/05/15 01:33:53;;;;;;;40.33;23.85;;;;;;;9.52;100.00;101324.28;4884062;29;20131;-81
2023/05/15 01:36:29;;;;;;;41.63;22.80;;;;;;;9.50;100.00;101326.38;4900939;29;20033;-81
2023/05/15 01:39:01;;;;;;;42.60;23.52;;;;;;;9.48;100.00;101329.28;4896062;29;20064;-81
2023/05/15 01:41:50;;;;;;;38.83;24.08;;;;;;;9.46;100.00;101315.91;4900572;29;20064;-81
2023/05/15 01:44:24;;;;;;;46.35;24.13;;;;;;;9.45;100.00;101311.53;4900224;29;20032;-81
2023/05/15 01:46:54;;;;;;;44.28;24.27;;;;;;;9.43;100.00;101327.16;4883820;29;20036;-81
2023/05/15 01:49:26;;;;;;;42.47;24.13;;;;;;;9.44;100.00;101319.84;4883498;29;20036;-83
2023/05/15 01:52:01;;;;;;;41.60;24.58;;;;;;;9.40;100.00;101313.16;4883432;29;20029;-81
2023/05/15 01:54:28;;;;;;;46.15;26.52;;;;;;;9.37;100.00;101306.25;4883342;29;20047;-81
2023/05/15 01:56:56;;;;;;;44.80;24.30;;;;;;;9.39;100.00;101308.75;4883575;29;20528;-81
2023/05/15 01:59:22;;;;;;;48.05;26.80;;;;;;;9.40;100.00;101307.72;4899791;29;20033;-81
2023/05/15 02:01:49;;;;;;;45.83;24.70;;;;;;;9.41;100.00;101304.81;4883864;29;20117;-81
2023/05/15 02:04:16;;;;;;;44.30;24.30;;;;;;;9.40;100.00;101305.03;4867462;29;20107;-81
2023/05/15 02:06:43;;;;;;;45.55;24.58;;;;;;;9.40;100.00;101307.72;4868126;29;20024;-81
2023/05/15 02:09:09;;;;;;;48.58;24.73;;;;;;;9.43;100.00;101305.47;4883127;29;20045;-81
2023/05/15 02:11:36;;;;;;;41.75;24.08;;;;;;;9.44;100.00;101295.47;4883383;29;20091;-81
2023/05/15 02:14:03;;;;;;;45.20;24.97;;;;;;;9.43;100.00;101304.63;4899862;29;20469;-81
2023/05/15 02:16:29;;;;;;;45.88;25.63;;;;;;;9.42;100.00;101305.66;4899748;29;20036;-81
2023/05/15 02:18:55;;;;;;;45.80;25.33;;;;;;;9.41;100.00;101298.59;4882897;29;20388;-81
2023/05/15 02:21:20;;;;;;;52.97;26.53;;;;;;;9.38;100.00;101307.09;4899772;29;20092;-81
2023/05/15 02:23:46;;;;;;;47.30;25.35;;;;;;;9.40;100.00;101305.03;4882746;29;20035;-81
2023/05/15 02:26:40;;;;;;;46.17;25.43;;;;;;;9.38;100.00;101307.94;4899364;29;20036;-81
2023/05/15 02:29:20;;;;;;;50.15;26.23;;;;;;;9.37;100.00;101305.41;4882807;29;20024;-81
2023/05/15 02:32:20;;;;;;;52.13;27.27;;;;;;;9.35;100.00;101297.50;4899129;29;20115;-81
2023/05/15 02:35:11;;;;;;;48.25;26.40;;;;;;;9.32;100.00;101311.44;4882676;29;20056;-81
2023/05/15 02:37:40;;;;;;;56.17;27.35;;;;;;;9.27;100.00;101324.69;4881692;29;20127;-81
2023/05/15 02:40:12;;;;;;;53.38;27.27;;;;;;;9.25;100.00;101319.47;4899454;29;20565;-81
2023/05/15 02:42:39;;;;;;;53.65;28.65;;;;;;;9.20;100.00;101318.41;4883374;29;20071;-81
2023/05/15 02:45:06;;;;;;;51.73;28.90;;;;;;;9.16;100.00;101327.94;4882562;29;20389;-81
2023/05/15 02:47:33;;;;;;;56.88;29.60;;;;;;;9.11;100.00;101326.66;4882375;29;20024;-81
2023/05/15 02:49:59;;;;;;;53.72;28.88;;;;;;;9.07;100.00;101325.38;4882305;29;20040;-82
2023/05/15 02:52:25;;;;;;;58.58;29.35;;;;;;;9.02;100.00;101322.41;4851579;29;20047;-81
2023/05/15 02:54:50;;;;;;;57.87;31.00;;;;;;;9.00;100.00;101323.63;4882284;29;20043;-81
2023/05/15 02:57:16;;;;;;;62.97;30.23;;;;;;;8.95;100.00;101318.81;4882556;29;20044;-81
2023/05/15 02:59:41;;;;;;;57.63;30.53;;;;;;;8.94;100.00;101311.69;4882520;29;20387;-81
2023/05/15 03:02:07;;;;;;;57.87;30.40;;;;;;;8.89;100.00;101317.69;4866907;29;20047;-81
2023/05/15 03:04:32;;;;;;;61.70;30.37;;;;;;;8.87;100.00;101317.06;4866844;29;20057;-81
2023/05/15 03:06:58;;;;;;;59.03;31.20;;;;;;;8.84;100.00;101311.19;4851378;29;20123;-81
2023/05/15 03:09:24;;;;;;;61.27;31.60;;;;;;;8.80;100.00;101308.03;4866624;29;20136;-81
2023/05/15 03:11:49;;;;;;;60.83;31.02;;;;;;;8.78;100.00;101318.19;4866725;29;20033;-81
2023/05/15 03:14:15;;;;;;;59.60;30.40;;;;;;;8.74;100.00;101312.34;4899151;29;20044;-81
2023/05/15 03:16:40;;;;;;;64.10;31.73;;;;;;;8.70;100.00;101307.50;4882352;29;20036;-81
2023/05/15 03:19:06;;;;;;;58.17;30.33;;;;;;;8.69;100.00;101308.53;4867304;29;20044;-81
2023/05/15 03:21:31;;;;;;;61.00;30.57;;;;;;;8.66;100.00;101314.34;4882056;29;20047;-81
2023/05/15 03:23:56;;;;;;;61.87;31.10;;;;;;;8.63;100.00;101317.41;4866276;29;20649;-81
2023/05/15 03:26:22;;;;;;;61.60;31.03;;;;;;;8.61;100.00;101301.38;4898731;29;20067;-81
2023/05/15 03:28:47;;;;;;;65.47;32.77;;;;;;;8.57;100.00;101308.19;4898711;29;20116;-81
2023/05/15 03:31:13;;;;;;;68.67;33.03;;;;;;;8.54;100.00;101304.00;4881652;29;20035;-81
2023/05/15 03:33:39;;;;;;;65.88;33.10;;;;;;;8.52;100.00;101307.91;4898623;29;20036;-81
2023/05/15 03:36:05;;;;;;;63.73;32.30;;;;;;;8.50;100.00;101301.88;4898662;29;20036;-81
2023/05/15 03:38:31;;;;;;;68.10;31.45;;;;;;;8.49;100.00;101305.59;4898552;29;20292;-81
2023/05/15 03:40:56;;;;;;;67.50;33.97;;;;;;;8.44;100.00;101295.34;4866382;29;20492;-81
2023/05/15 03:43:22;;;;;;;67.07;32.73;;;;;;;8.43;100.00;101291.78;4881900;29;20155;-81
2023/05/15 03:45:48;;;;;;;66.78;32.10;;;;;;;8.40;100.00;101300.28;4866232;29;20051;-81
2023/05/15 03:48:13;;;;;;;70.83;34.63;;;;;;;8.37;100.00;101292.56;4868346;29;20036;-82
2023/05/15 03:50:39;;;;;;;68.68;33.05;;;;;;;8.35;100.00;101285.66;4870333;29;20041;-81
2023/05/15 03:53:04;;;;;;;67.07;32.57;;;;;;;8.33;100.00;101290.44;4886255;29;20047;-80
2023/05/15 03:55:30;;;;;;;70.53;31.52;;;;;;;8.34;100.00;101286.66;4885466;29;20560;-81
2023/05/15 03:57:56;;;;;;;71.50;32.90;;;;;;;8.32;100.00;101294.97;4885568;29;20033;-81
2023/05/15 04:00:22;;;;;;;77.75;34.58;;;;;;;8.32;100.00;101294.97;4902271;29;20036;-81
2023/05/15 04:02:48;;;;;;;78.03;34.57;;;;;;;8.30;100.00;101296.19;4902462;29;20346;-81
2023/05/15 04:05:13;;;;;;;77.40;35.63;;;;;;;8.27;100.00;101294.72;4885607;29;20442;-80
2023/05/15 04:07:41;;;;;;;73.87;33.77;;;;;;;8.28;100.00;101292.84;4885594;29;20037;-81
2023/05/15 04:10:07;;;;;;;71.32;35.00;;;;;;;8.26;100.00;101293.84;4885680;29;20041;-81
2023/05/15 04:12:34;;;;;;;78.05;34.90;;;;;;;8.26;100.00;101296.56;4885618;29;20037;-81
2023/05/15 04:15:14;;;;;;;82.72;34.63;;;;;;;8.25;100.00;101291.34;4885205;29;20096;-81
2023/05/15 04:17:39;;;;;;;77.35;34.63;;;;;;;8.25;100.00;101285.94;4901844;29;20036;-81
2023/05/15 04:20:09;;;;;;;77.00;35.53;;;;;;;8.23;100.00;101288.84;4870075;29;20051;-81
2023/05/15 04:22:35;;;;;;;78.97;35.47;;;;;;;8.24;100.00;101289.69;4885497;29;20036;-80
2023/05/15 04:25:00;;;;;;;80.43;36.60;;;;;;;8.23;100.00;101293.41;4901720;29;20042;-81
2023/05/15 04:27:26;;;;;;;77.95;36.00;;;;;;;8.25;100.00;101291.34;4902540;29;20281;-81
2023/05/15 04:29:52;;;;;;;76.03;34.93;;;;;;;8.28;100.00;101292.84;4885041;29;20084;-81
2023/05/15 04:32:17;;;;;;;80.22;35.47;;;;;;;8.30;100.00;101305.16;4884767;29;20119;-81
2023/05/15 04:34:43;;;;;;;87.97;37.70;;;;;;;8.31;100.00;101306.84;4869183;29;20036;-81
2023/05/15 04:37:10;;;;;;;80.93;35.40;;;;;;;8.36;100.00;101314.38;4885386;29;20040;-81
2023/05/15 04:39:36;;;;;;;79.05;37.30;;;;;;;8.40;100.00;101307.53;4869274;29;20124;-81
2023/05/15 04:42:01;;;;;;;84.15;37.13;;;;;;;8.43;100.00;101316.13;4884606;29;20153;-81
2023/05/15 04:44:27;;;;;;;80.53;38.60;;;;;;;8.46;100.00;101317.66;4885158;29;20550;-80
2023/05/15 04:46:52;;;;;;;84.67;37.50;;;;;;;8.47;100.00;101324.72;4869463;29;20047;-81
2023/05/15 04:49:18;;;;;;;80.53;37.00;;;;;;;8.50;100.00;101327.03;4854447;29;20104;-81
2023/05/15 04:51:43;;;;;;;80.73;35.87;;;;;;;8.52;100.00;101330.41;4868861;29;20435;-81
2023/05/15 04:54:08;;;;;;;84.85;36.30;;;;;;;8.59;100.00;101325.91;4868844;29;20063;-81
2023/05/15 04:56:35;;;;;;;88.37;37.17;;;;;;;8.69;100.00;101325.59;4884986;29;20064;-81
2023/05/15 04:59:00;;;;;;;77.60;36.58;;;;;;;8.82;100.00;101324.91;4883975;29;20036;-81
2023/05/15 05:01:29;;;;;;;73.40;36.60;;;;;;;8.94;100.00;101334.19;4900818;29;20040;-81
2023/05/15 05:03:55;;;;;;;78.78;35.72;;;;;;;9.05;100.00;101316.59;4869069;29;20056;-81
2023/05/15 05:06:22;;;;;;;75.00;37.20;;;;;;;9.16;100.00;101327.94;4884280;29;20036;-81
2023/05/15 05:08:47;;;;;;;79.32;37.22;;;;;;;9.26;100.00;101325.75;4884204;29;20045;-81
2023/05/15 05:11:12;;;;;;;80.37;36.27;;;;;;;9.36;100.00;101319.97;4853285;29;20033;-81
2023/05/15 05:13:38;;;;;;;73.03;36.97;;;;;;;9.44;100.00;101327.97;4900654;29;20036;-81
2023/05/15 05:16:06;;;;;;;78.53;36.67;;;;;;;9.52;100.00;101330.53;4853352;29;20737;-81
2023/05/15 05:18:31;;;;;;;72.37;35.07;;;;;;;9.61;100.00;101332.06;4868724;29;20036;-81
2023/05/15 05:21:01;;;;;;;75.13;36.20;;;;;;;9.66;100.00;101331.47;4868386;29;20564;-83
2023/05/15 05:23:27;;;;;;;72.57;35.97;;;;;;;9.71;100.00;101336.31;4869127;29;20043;-81
2023/05/15 05:25:52;;;;;;;74.80;36.30;;;;;;;9.81;100.00;101342.22;4900738;29;20032;-81
2023/05/15 05:28:18;;;;;;;69.97;33.93;;;;;;;9.85;100.00;101343.50;4868052;29;20390;-81
2023/05/15 05:30:45;;;;;;;70.18;34.38;;;;;;;9.93;100.00;101346.03;4884204;29;20059;-81
2023/05/15 05:33:10;;;;;;;65.32;32.72;;;;;;;9.99;100.00;101344.41;4883371;29;20506;-83
2023/05/15 05:35:36;;;;;;;57.97;30.87;;;;;;;9.96;100.00;101345.63;4883633;29;20119;-82
2023/05/15 05:38:01;;;;;;;64.88;31.33;;;;;;;9.97;100.00;101351.91;4868156;29;20393;-82
2023/05/15 05:40:27;;;;;;;60.83;30.10;;;;;;;10.01;100.00;101348.59;4868051;29;20477;-82
2023/05/15 05:42:55;;;;;;;60.27;31.07;;;;;;;10.09;100.00;101347.59;4883562;29;20393;-83
2023/05/15 05:45:20;;;;;;;61.55;31.05;;;;;;;10.17;100.00;101358.28;4899935;29;20029;-82
2023/05/15 05:47:48;;;;;;;53.20;26.33;;;;;;;10.25;100.00;101356.44;4900083;29;20155;-82
2023/05/15 05:50:14;;;;;;;56.92;26.65;;;;;;;10.24;100.00;101357.47;4869138;29;20115;-81
2023/05/15 05:52:39;;;;;;;56.30;28.70;;;;;;;10.23;100.00;101367.50;4852962;29;20115;-82
2023/05/15 05:55:05;;;;;;;47.63;27.33;;;;;;;10.21;100.00;101353.28;4868208;29;20032;-83
2023/05/15 05:57:31;;;;;;;49.63;26.70;;;;;;;10.26;100.00;101356.25;4867275;29;20032;-83
2023/05/15 05:59:57;;;;;;;51.83;26.88;;;;;;;10.33;100.00;101354.44;4882922;29;20115;-82
2023/05/15 06:02:22;;;;;;;49.40;26.10;;;;;;;10.42;100.00;101354.25;4867575;29;20099;-82
2023/05/15 06:04:50;;;;;;;46.40;25.23;;;;;;;10.55;100.00;101358.91;4867375;29;20076;-81
2023/05/15 06:07:16;;;;;;;45.10;24.65;;;;;;;10.70;100.00;101365.00;4883253;29;20139;-81
2023/05/15 06:09:41;;;;;;;49.83;25.27;;;;;;;10.80;100.00;101354.59;4851923;29;20540;-81
2023/05/15 06:12:07;;;;;;;45.47;26.13;;;;;;;10.96;100.00;101358.00;4882715;29;20128;-81
2023/05/15 06:14:33;;;;;;;40.73;24.17;;;;;;;11.15;100.00;101357.19;4883449;29;20029;-81
2023/05/15 06:16:59;;;;;;;41.35;24.35;;;;;;;11.26;100.00;101357.63;4899597;29;20037;-81
2023/05/15 06:19:25;;;;;;;38.85;22.83;;;;;;;11.38;100.00;101354.09;4899849;29;20480;-81
2023/05/15 06:21:51;;;;;;;39.80;23.90;;;;;;;11.57;100.00;101355.13;4867225;29;20033;-82
2023/05/15 06:24:16;;;;;;;41.35;23.38;;;;;;;11.77;100.00;101354.28;4899106;29;20433;-82
2023/05/15 06:26:42;;;;;;;41.20;24.33;;;;;;;11.91;100.00;101360.50;4866844;29;20124;-82
2023/05/15 06:29:07;;;;;;;36.87;23.83;;;;;;;11.96;100.00;101354.47;4866604;29;20096;-82
2023/05/15 06:31:35;;;;;;;39.80;24.27;;;;;;;12.07;100.00;101354.66;4866794;29;20044;-82
2023/05/15 06:34:03;;;;;;;35.50;21.97;;;;;;;12.23;100.00;101356.06;4867244;29;20047;-82
2023/05/15 06:36:29;;;;;;;34.28;22.05;;;;;;;12.47;99.95;101353.69;4882948;29;20040;-81
2023/05/15 06:38:54;;;;;;;35.03;22.07;;;;;;;12.75;100.00;101352.53;4899466;29;20346;-82
2023/05/15 06:41:20;;;;;;;39.57;21.93;;;;;;;12.77;96.63;101353.13;4851833;29;20080;-82
2023/05/15 06:43:45;;;;;;;35.00;22.33;;;;;;;12.77;96.18;101347.69;4881833;29;20292;-82
2023/05/15 06:46:11;;;;;;;33.67;20.97;;;;;;;12.64;94.95;101351.31;4851462;29;20044;-81
2023/05/15 06:48:36;;;;;;;34.00;22.25;;;;;;;12.63;95.13;101344.19;4851585;29;20032;-80
2023/05/15 06:51:02;;;;;;;34.20;22.20;;;;;;;12.72;95.62;101352.97;4899028;29;20565;-81
2023/05/15 06:53:28;;;;;;;35.23;22.07;;;;;;;12.78;93.77;101342.03;4881692;29;20033;-83
2023/05/15 06:55:54;;;;;;;38.20;23.15;;;;;;;12.88;93.35;101344.28;4866612;29;20370;-81
2023/05/15 06:58:19;;;;;;;35.70;23.43;;;;;;;12.85;93.62;101346.63;4881408;29;20043;-81
2023/05/15 07:00:45;;;;;;;42.17;24.50;;;;;;;12.74;93.42;101346.25;4866719;29;20048;-81
2023/05/15 07:03:10;;;;;;;36.13;24.38;;;;;;;12.81;93.40;101341.59;4866735;29;20454;-81
2023/05/15 07:05:35;;;;;;;41.43;25.37;;;;;;;12.82;93.48;101345.16;4866653;29;20040;-81
2023/05/15 07:08:04;;;;;;;38.33;24.93;;;;;;;12.64;93.50;101346.69;4882436;29;20127;-81
2023/05/15 07:10:29;;;;;;;43.47;25.17;;;;;;;12.56;93.89;101352.41;4882158;29;20096;-81
2023/05/15 07:12:55;;;;;;;35.67;23.30;;;;;;;12.71;92.81;101348.56;4882838;29;20040;-81
2023/05/15 07:15:20;;;;;;;35.03;22.63;;;;;;;12.92;92.00;101342.78;4899221;29;20453;-81
2023/05/15 07:17:46;;;;;;;46.30;29.60;;;;;;;12.94;91.48;101346.13;4881827;29;20061;-81
2023/05/15 07:20:11;;;;;;;42.30;27.37;;;;;;;12.78;89.59;101341.19;4881587;29;20496;-81
2023/05/15 07:22:37;;;;;;;40.73;26.63;;;;;;;12.71;91.63;101351.28;4881465;29;20077;-81
2023/05/15 07:25:03;;;;;;;44.35;27.13;;;;;;;12.60;91.37;101350.91;4858684;29;20047;-82
2023/05/15 07:27:31;;;;;;;44.80;27.55;;;;;;;12.60;92.14;101344.63;4865387;29;20135;-81
2023/05/15 07:29:57;;;;;;;44.87;27.27;;;;;;;12.70;93.10;101349.63;4881811;29;20096;-81
2023/05/15 07:32:22;;;;;;;44.13;27.88;;;;;;;12.97;92.32;101334.78;4866035;29;20024;-81
2023/05/15 07:34:47;;;;;;;47.23;28.90;;;;;;;13.35;91.88;101335.81;4851320;29;20067;-81
2023/05/15 07:37:13;;;;;;;40.67;27.93;;;;;;;13.35;89.15;101330.38;4898477;29;20039;-81
2023/05/15 07:39:38;;;;;;;44.90;29.17;;;;;;;13.08;89.42;101335.97;4866206;29;20037;-81
2023/05/15 07:42:04;;;;;;;46.50;30.97;;;;;;;13.00;90.92;101333.50;4881510;29;20065;-81
2023/05/15 07:44:29;;;;;;;45.42;30.23;;;;;;;12.99;91.15;101329.09;4898473;29;20040;-81
2023/05/15 07:46:55;;;;;;;45.43;29.50;;;;;;;13.02;88.62;101330.56;4866514;29;20520;-81
2023/05/15 07:49:20;;;;;;;48.30;31.52;;;;;;;12.91;89.50;101334.84;4882352;29;20040;-81
2023/05/15 07:51:46;;;;;;;49.47;32.50;;;;;;;12.85;90.69;101333.81;4881287;29;20505;-81
2023/05/15 07:54:11;;;;;;;50.93;32.60;;;;;;;12.86;90.84;101329.19;4866126;29;20084;-81
2023/05/15 07:56:38;;;;;;;44.90;30.57;;;;;;;12.99;91.40;101321.78;4866177;29;20470;-81
2023/05/15 07:59:03;;;;;;;50.20;31.42;;;;;;;13.12;92.18;101320.88;4866258;29;20040;-81
2023/05/15 08:01:28;;;;;;;55.40;35.77;;;;;;;13.24;93.23;101320.13;4881662;29;20037;-81
2023/05/15 08:03:54;;;;;;;56.57;36.77;;;;;;;13.21;94.29;101326.03;4850489;29;20485;-81
2023/05/15 08:06:19;;;;;;;54.78;34.72;;;;;;;13.10;94.46;101330.31;4881387;29;20496;-81
2023/05/15 08:08:45;;;;;;;61.00;35.87;;;;;;;13.09;94.61;101326.72;4898308;29;20381;-81
2023/05/15 08:11:10;;;;;;;55.80;35.97;;;;;;;13.05;93.71;101321.94;4898082;29;20028;-81
2023/05/15 08:13:39;;;;;;;54.40;35.27;;;;;;;13.15;93.57;101327.75;4865686;29;20033;-81
2023/05/15 08:16:04;;;;;;;53.38;35.20;;;;;;;13.25;92.17;101327.28;4865843;29;20085;-81
2023/05/15 08:18:30;;;;;;;54.83;35.22;;;;;;;13.37;92.24;101324.69;4865762;29;20040;-81
2023/05/15 08:20:55;;;;;;;50.40;32.97;;;;;;;13.48;90.17;101322.06;4850148;29;20128;-81
2023/05/15 08:23:21;;;;;;;59.53;34.27;;;;;;;13.60;89.29;101330.34;4898028;29;20080;-81
2023/05/15 08:25:46;;;;;;;53.03;33.20;;;;;;;13.80;89.34;101324.72;4881132;29;20088;-81
2023/05/15 08:28:12;;;;;;;53.38;33.25;;;;;;;13.89;89.32;101330.69;4898307;29;20145;-81
2023/05/15 08:30:37;;;;;;;53.20;32.57;;;;;;;13.91;88.10;101330.50;4865466;29;20478;-82
2023/05/15 08:33:02;;;;;;;54.67;34.07;;;;;;;14.05;88.25;101326.53;4866296;29;20032;-81
2023/05/15 08:35:28;;;;;;;52.33;34.50;;;;;;;14.19;86.40;101321.78;4869416;29;20605;-80
2023/05/15 08:37:56;;;;;;;54.93;33.43;;;;;;;14.34;86.92;101316.75;4885023;29;20059;-81
2023/05/15 08:40:22;;;;;;;47.22;30.70;;;;;;;14.51;84.40;101325.16;4884536;29;20037;-81
2023/05/15 08:42:54;;;;;;;48.88;30.70;;;;;;;14.71;82.70;101329.53;4884305;29;20036;-81
2023/05/15 08:45:20;;;;;;;47.00;30.13;;;;;;;14.95;80.77;101329.63;4901380;29;20044;-81
2023/05/15 08:47:46;;;;;;;42.73;28.87;;;;;;;15.06;78.31;101321.47;4901359;29;20032;-81
2023/05/15 08:50:16;;;;;;;42.67;29.00;;;;;;;15.17;79.26;101328.00;4884635;29;20033;-81
2023/05/15 08:52:46;;;;;;;45.47;29.58;;;;;;;15.21;78.79;101328.41;4901330;29;20052;-81
2023/05/15 08:55:15;;;;;;;45.03;29.17;;;;;;;15.36;77.19;101326.03;4901002;29;20093;-81
2023/05/15 08:57:42;;;;;;;44.57;27.50;;;;;;;15.50;76.16;101323.06;4884251;29;20473;-81
2023/05/15 09:00:10;;;;;;;43.17;28.58;;;;;;;15.76;75.66;101317.13;4901166;29;20036;-81
2023/05/15 09:02:37;;;;;;;42.47;28.50;;;;;;;16.11;74.90;101315.47;4869205;29;20043;-81
2023/05/15 09:05:05;;;;;;;44.88;28.08;;;;;;;16.29;75.24;101311.72;4901156;29;20111;-81
2023/05/15 09:07:30;;;;;;;44.53;27.83;;;;;;;16.56;73.63;101324.84;4901570;29;20047;-81
2023/05/15 09:09:56;;;;;;;45.40;27.70;;;;;;;16.87;72.12;101319.97;4900992;29;20028;-81
2023/05/15 09:12:23;;;;;;;40.95;28.08;;;;;;;17.22;71.44;101318.97;4884630;29;20060;-81
2023/05/15 09:14:49;;;;;;;44.00;28.23;;;;;;;17.56;69.35;101316.22;4883879;29;20041;-81
2023/05/15 09:17:15;;;;;;;38.87;26.37;;;;;;;17.58;68.02;101309.38;4884000;29;20146;-81
2023/05/15 09:19:41;;;;;;;37.15;25.95;;;;;;;17.91;68.35;101313.19;4884098;29;20059;-81
2023/05/15 09:22:16;;;;;;;40.92;27.27;;;;;;;17.82;67.07;101307.28;4868438;29;20036;-82
2023/05/15 09:24:46;;;;;;;41.53;26.43;;;;;;;17.38;69.53;101318.13;4900449;29;20029;-82
2023/05/15 09:27:12;;;;;;;42.72;26.52;;;;;;;17.16;70.00;101310.63;4883697;29;20052;-81
2023/05/15 09:29:38;;;;;;;39.57;25.70;;;;;;;17.32;69.03;101319.97;4884039;29;20071;-82
2023/05/15 09:32:07;;;;;;;40.33;26.53;;;;;;;17.31;68.80;101322.94;4900666;29;20273;-81
2023/05/15 09:34:37;;;;;;;39.10;25.70;;;;;;;17.12;68.39;101316.88;4883282;29;20071;-82
2023/05/15 09:37:05;;;;;;;39.75;25.58;;;;;;;17.06;69.62;101324.16;4883593;29;20466;-81
2023/05/15 09:39:31;;;;;;;39.35;26.98;;;;;;;16.97;69.48;101321.00;4900466;29;20031;-81
2023/05/15 09:42:08;;;;;;;36.17;24.53;;;;;;;17.00;69.52;101316.94;4900827;29;20037;-82
2023/05/15 09:44:33;;;;;;;38.60;25.35;;;;;;;16.89;69.66;101318.69;4884053;29;20096;-81
2023/05/15 09:47:00;;;;;;;38.97;25.90;;;;;;;16.86;70.39;101327.34;4867417;29;20044;-82
2023/05/15 09:49:29;;;;;;;37.73;25.90;;;;;;;16.90;70.85;101317.56;4882985;29;20028;-82
2023/05/15 09:51:58;;;;;;;40.80;25.70;;;;;;;16.82;69.82;101327.00;4883261;29;20132;-81
2023/05/15 09:54:24;;;;;;;37.17;26.15;;;;;;;16.64;70.76;101319.81;4867641;29;20044;-82
2023/05/15 09:56:49;;;;;;;35.28;25.98;;;;;;;16.45;70.75;101321.91;4900081;29;20513;-82
2023/05/15 09:59:17;;;;;;;35.33;25.70;;;;;;;16.35;72.53;101329.91;4883446;29;20127;-81
2023/05/15 10:01:44;;;;;;;44.03;27.02;;;;;;;16.20;73.33;101327.69;4883295;29;20033;-81
2023/05/15 10:04:14;;;;;;;37.33;25.58;;;;;;;16.28;72.86;101321.00;4900060;29;20053;-82
2023/05/15 10:06:45;;;;;;;39.03;24.60;;;;;;;16.32;73.08;101322.19;4883453;29;20048;-82
2023/05/15 10:09:12;;;;;;;37.47;25.67;;;;;;;16.41;72.69;101333.59;4883011;29;20056;-81
2023/05/15 10:11:42;;;;;;;34.97;24.60;;;;;;;16.52;72.45;101337.38;4899889;29;20028;-81
2023/05/15 10:14:10;;;;;;;36.30;24.48;;;;;;;16.58;71.35;101323.53;4883464;29;20077;-81
2023/05/15 10:16:37;;;;;;;37.55;25.55;;;;;;;16.71;72.41;101338.00;4882915;29;20466;-81
2023/05/15 10:19:06;;;;;;;33.40;22.40;;;;;;;16.68;71.32;101331.09;4867740;29;20164;-81
2023/05/15 10:21:34;;;;;;;32.75;22.85;;;;;;;16.68;71.18;101328.38;4882909;29;20043;-81
2023/05/15 10:24:00;;;;;;;33.63;22.27;;;;;;;16.79;71.22;101330.22;4881997;29;20151;-82
2023/05/15 10:26:37;;;;;;;35.00;23.50;;;;;;;16.83;71.57;101330.59;4899792;29;20032;-81
2023/05/15 10:29:08;;;;;;;33.35;21.75;;;;;;;16.90;71.86;101333.19;4882970;29;20037;-81
2023/05/15 10:31:35;;;;;;;28.67;21.20;;;;;;;16.82;73.32;101335.22;4899534;29;20033;-81
2023/05/15 10:34:04;;;;;;;31.00;21.50;;;;;;;16.82;73.52;101329.75;4899156;29;20401;-82
2023/05/15 10:36:34;;;;;;;31.52;22.42;;;;;;;16.76;73.16;101336.22;4899271;29;20056;-81
2023/05/15 10:39:02;;;;;;;32.67;22.67;;;;;;;16.82;74.45;101343.44;4851772;29;20139;-81
2023/05/15 10:41:29;;;;;;;33.67;22.92;;;;;;;16.80;73.02;101342.03;4899241;29;20088;-81
2023/05/15 10:43:59;;;;;;;30.93;22.17;;;;;;;16.85;72.39;101342.13;4867451;29;20036;-81
2023/05/15 10:46:30;;;;;;;31.63;23.00;;;;;;;16.98;72.48;101332.81;4899719;29;20043;-81
2023/05/15 10:48:57;;;;;;;36.10;23.52;;;;;;;16.98;72.32;101336.38;4881951;29;20421;-81
2023/05/15 10:51:32;;;;;;;33.03;22.25;;;;;;;17.08;72.38;101335.75;4899172;29;20035;-82
2023/05/15 10:54:02;;;;;;;29.63;21.48;;;;;;;17.04;71.29;101331.81;4867122;29;20040;-81
2023/05/15 10:56:37;;;;;;;31.07;21.67;;;;;;;16.92;72.33;101333.78;4882229;29;20059;-82
2023/05/15 10:59:07;;;;;;;31.42;22.13;;;;;;;16.88;72.53;101341.66;4881399;29;20033;-82
2023/05/15 11:01:35;;;;;;;31.05;21.65;;;;;;;16.97;72.11;101339.38;4882095;29;20038;-81
2023/05/15 11:04:08;;;;;;;37.47;22.00;;;;;;;16.88;71.87;101338.94;4882508;29;20059;-82
2023/05/15 11:06:34;;;;;;;32.50;22.77;;;;;;;16.76;73.25;101343.59;4898843;29;20085;-81